Terminal Aerodrome Forecast
Issued by NWS Rapid City, SD

Home | Current Version | Previous Version | Graphics & Text | Print | Product List | Glossary On
Versions: 1 2 3 4 5 6 7 8 9 10 11 12 13 14 15
000
FTUS43 KUNR 250600 AAA
TAFRAP
TAF AMD
KRAP 250650Z 2507/2606 01012KT P6SM SCT010
      TEMPO 2508/2512 OVC010
     FM251500 35020G30KT P6SM SCT025
     FM260100 34009KT P6SM SCT120=

USA.gov is the U.S. government's official web portal to all federal, state and local government web resources and services.